Time;durP1;ratioP1;P1;durP2;ratioP2;P2;SDS_P1;SDS_P2;PMS_P1;PMS_P2;Temp;Humidity;BMP_temperature;BMP_pressure;BME280_temperature;BME280_humidity;BME280_pressure;Samples;Min_cycle;Max_cycle;Signal;HPM_P1;HPM_P2
2023/04/14 00:01:19;;;;;;;4.10;2.80;;;;;;;;;;6350643;22;20002;-79
2023/04/14 00:03:46;;;;;;;5.32;3.65;;;;;;;;;;6345923;22;20006;-80
2023/04/14 00:06:12;;;;;;;3.63;2.95;;;;;;;;;;6311328;22;19998;-80
2023/04/14 00:08:38;;;;;;;6.35;2.95;;;;;;;;;;6313020;22;20037;-78
2023/04/14 00:11:04;;;;;;;6.18;2.55;;;;;;;;;;6314244;22;20003;-79
2023/04/14 00:13:30;;;;;;;4.10;3.00;;;;;;;;;;6314648;22;20007;-80
2023/04/14 00:15:57;;;;;;;4.22;3.22;;;;;;;;;;6339015;22;20010;-81
2023/04/14 00:18:23;;;;;;;4.47;2.88;;;;;;;;;;6323454;22;19998;-80
2023/04/14 00:20:49;;;;;;;4.13;3.03;;;;;;;;;;6342511;22;20003;-81
2023/04/14 00:23:15;;;;;;;4.38;3.17;;;;;;;;;;6321632;22;20032;-80
2023/04/14 00:25:41;;;;;;;5.50;2.90;;;;;;;;;;6316492;22;20007;-80
2023/04/14 00:28:07;;;;;;;4.18;2.80;;;;;;;;;;6342862;22;20425;-80
2023/04/14 00:30:33;;;;;;;4.53;2.60;;;;;;;;;;6342439;22;20367;-80
2023/04/14 00:32:59;;;;;;;4.72;2.75;;;;;;;;;;6337396;22;20005;-80
2023/04/14 00:35:25;;;;;;;4.07;2.50;;;;;;;;;;6335696;22;20028;-79
2023/04/14 00:37:51;;;;;;;7.18;2.80;;;;;;;;;;6341921;22;20463;-79
2023/04/14 00:40:18;;;;;;;4.28;2.58;;;;;;;;;;6338025;22;19998;-80
2023/04/14 00:42:44;;;;;;;4.25;2.80;;;;;;;;;;6338491;22;20024;-80
2023/04/14 00:45:11;;;;;;;3.67;2.70;;;;;;;;;;6337013;22;20068;-81
2023/04/14 00:47:40;;;;;;;4.45;2.80;;;;;;;;;;6339698;22;20005;-80
2023/04/14 00:50:08;;;;;;;6.88;2.88;;;;;;;;;;6316066;22;20003;-80
2023/04/14 00:52:36;;;;;;;4.13;2.63;;;;;;;;;;6337986;22;20068;-79
2023/04/14 00:55:04;;;;;;;4.68;2.72;;;;;;;;;;6338389;22;20006;-79
2023/04/14 00:57:30;;;;;;;4.97;2.78;;;;;;;;;;6336442;22;20006;-81
2023/04/14 00:59:57;;;;;;;3.88;2.80;;;;;;;;;;6339078;22;19999;-80
2023/04/14 01:02:24;;;;;;;6.18;3.03;;;;;;;;;;6310714;22;20014;-80
2023/04/14 01:04:51;;;;;;;6.63;3.13;;;;;;;;;;6338813;22;20006;-80
2023/04/14 01:07:18;;;;;;;8.63;3.58;;;;;;;;;;6337844;22;20016;-79
2023/04/14 01:09:44;;;;;;;4.32;3.03;;;;;;;;;;6335783;22;20006;-80
2023/04/14 01:12:29;;;;;;;4.05;2.38;;;;;;;;;;6333576;22;20326;-79
2023/04/14 01:14:58;;;;;;;6.78;2.85;;;;;;;;;;6337661;22;20328;-79
2023/04/14 01:17:30;;;;;;;5.63;3.00;;;;;;;;;;6339351;22;19999;-79
2023/04/14 01:19:59;;;;;;;5.93;2.72;;;;;;;;;;6310783;22;20006;-79
2023/04/14 01:22:27;;;;;;;5.07;3.03;;;;;;;;;;6312163;22;20052;-80
2023/04/14 01:24:57;;;;;;;7.22;3.35;;;;;;;;;;6310248;22;20003;-80
2023/04/14 01:27:23;;;;;;;5.10;3.10;;;;;;;;;;6315950;22;20418;-80
2023/04/14 01:29:50;;;;;;;5.93;4.05;;;;;;;;;;6337187;22;20030;-80
2023/04/14 01:32:19;;;;;;;6.25;3.42;;;;;;;;;;6335660;22;20006;-80
2023/04/14 01:34:50;;;;;;;4.78;3.28;;;;;;;;;;6301722;22;20440;-79
2023/04/14 01:37:16;;;;;;;6.47;3.63;;;;;;;;;;6302416;22;19999;-79
2023/04/14 01:39:45;;;;;;;4.03;3.17;;;;;;;;;;6303002;22;20003;-79
2023/04/14 01:42:13;;;;;;;5.22;3.65;;;;;;;;;;6307986;22;20039;-79
2023/04/14 01:44:40;;;;;;;9.30;3.90;;;;;;;;;;6301100;22;20333;-80
2023/04/14 01:47:07;;;;;;;9.98;4.05;;;;;;;;;;6306649;22;20358;-82
2023/04/14 01:49:35;;;;;;;7.65;3.83;;;;;;;;;;6304068;22;20041;-80
2023/04/14 01:52:03;;;;;;;7.35;3.80;;;;;;;;;;6311708;22;19999;-79
2023/04/14 01:54:31;;;;;;;7.18;4.15;;;;;;;;;;6309771;22;20003;-80
2023/04/14 01:56:58;;;;;;;8.05;4.57;;;;;;;;;;6308634;22;20021;-81
2023/04/14 01:59:26;;;;;;;5.93;4.10;;;;;;;;;;6309011;22;20427;-80
2023/04/14 02:01:52;;;;;;;6.05;3.90;;;;;;;;;;6311519;22;20354;-80
2023/04/14 02:04:21;;;;;;;6.03;3.95;;;;;;;;;;6308836;22;20059;-80
2023/04/14 02:06:49;;;;;;;7.80;4.03;;;;;;;;;;6312733;22;20007;-80
2023/04/14 02:09:15;;;;;;;12.05;4.32;;;;;;;;;;6312209;22;20010;-80
2023/04/14 02:11:42;;;;;;;4.70;4.20;;;;;;;;;;6308511;22;20076;-80
2023/04/14 02:14:09;;;;;;;9.02;4.45;;;;;;;;;;6308387;22;20445;-80
2023/04/14 02:16:36;;;;;;;7.85;5.50;;;;;;;;;;6303601;22;20003;-81
2023/04/14 02:19:04;;;;;;;7.13;4.30;;;;;;;;;;6308564;22;20077;-81
2023/04/14 02:21:32;;;;;;;6.15;5.15;;;;;;;;;;6306815;22;20011;-80
2023/04/14 02:23:59;;;;;;;7.03;4.32;;;;;;;;;;6305801;22;20425;-80
2023/04/14 02:26:27;;;;;;;23.17;5.28;;;;;;;;;;6308477;22;20034;-78
2023/04/14 02:29:07;;;;;;;7.60;4.32;;;;;;;;;;6303974;22;20011;-80
2023/04/14 02:31:33;;;;;;;7.30;3.92;;;;;;;;;;6303609;22;20007;-79
2023/04/14 02:34:00;;;;;;;5.85;4.07;;;;;;;;;;6319906;22;20011;-80
2023/04/14 02:36:33;;;;;;;8.05;4.72;;;;;;;;;;6335911;22;20437;-80
2023/04/14 02:39:09;;;;;;;9.57;4.75;;;;;;;;;;6338092;22;19999;-81
2023/04/14 02:41:36;;;;;;;6.28;4.47;;;;;;;;;;6335943;22;20007;-81
2023/04/14 02:44:09;;;;;;;6.72;4.68;;;;;;;;;;6306679;22;20002;-79
2023/04/14 02:46:36;;;;;;;5.20;3.72;;;;;;;;;;6335366;22;20034;-80
2023/04/14 02:49:04;;;;;;;6.18;3.97;;;;;;;;;;6333637;22;20345;-80
2023/04/14 02:51:32;;;;;;;6.05;4.13;;;;;;;;;;6333079;22;20056;-81
2023/04/14 02:53:58;;;;;;;6.88;4.53;;;;;;;;;;6307170;22;20056;-81
2023/04/14 02:56:25;;;;;;;5.70;3.88;;;;;;;;;;6307941;22;20117;-80
2023/04/14 02:58:51;;;;;;;5.20;4.05;;;;;;;;;;6335786;22;20002;-80
2023/04/14 03:01:18;;;;;;;8.68;4.18;;;;;;;;;;6336371;22;20005;-80
2023/04/14 03:03:45;;;;;;;5.53;3.60;;;;;;;;;;6342228;22;20003;-81
2023/04/14 03:06:14;;;;;;;9.02;4.10;;;;;;;;;;6341165;22;20026;-80
2023/04/14 03:08:41;;;;;;;8.18;4.05;;;;;;;;;;6340779;22;20007;-80
2023/04/14 03:11:08;;;;;;;6.75;3.63;;;;;;;;;;6340602;22;20026;-81
2023/04/14 03:13:35;;;;;;;5.47;3.97;;;;;;;;;;6341268;22;20299;-80
2023/04/14 03:16:02;;;;;;;6.05;3.85;;;;;;;;;;6341471;22;20027;-80
2023/04/14 03:18:30;;;;;;;6.45;3.75;;;;;;;;;;6341155;22;20003;-80
2023/04/14 03:20:59;;;;;;;5.80;4.22;;;;;;;;;;6336090;22;19999;-80
2023/04/14 03:23:25;;;;;;;5.93;3.85;;;;;;;;;;6336817;22;20013;-80
2023/04/14 03:25:53;;;;;;;7.22;3.75;;;;;;;;;;6337131;22;20038;-80
2023/04/14 03:28:21;;;;;;;6.68;4.32;;;;;;;;;;6336156;22;20003;-81
2023/04/14 03:30:50;;;;;;;5.53;3.67;;;;;;;;;;6337380;22;20003;-80
2023/04/14 03:33:18;;;;;;;7.25;3.80;;;;;;;;;;6309379;22;20598;-80
2023/04/14 03:35:45;;;;;;;5.57;4.10;;;;;;;;;;6340182;22;20068;-80
2023/04/14 03:38:12;;;;;;;6.22;4.00;;;;;;;;;;6338813;22;20093;-79
2023/04/14 03:40:40;;;;;;;5.57;4.22;;;;;;;;;;6339810;22;20010;-80
2023/04/14 03:43:08;;;;;;;6.13;4.15;;;;;;;;;;6339392;22;20085;-79
2023/04/14 03:45:37;;;;;;;7.35;3.95;;;;;;;;;;6310615;22;20071;-79
2023/04/14 03:48:05;;;;;;;6.47;4.00;;;;;;;;;;6337815;22;20030;-79
2023/04/14 03:50:39;;;;;;;4.75;3.80;;;;;;;;;;6333578;22;19999;-80
2023/04/14 03:53:07;;;;;;;5.30;3.92;;;;;;;;;;6335419;22;20400;-79
2023/04/14 03:55:35;;;;;;;6.97;3.90;;;;;;;;;;6336922;22;20006;-79
2023/04/14 03:58:01;;;;;;;4.78;4.10;;;;;;;;;;6337792;22;20003;-79
2023/04/14 04:00:29;;;;;;;6.35;4.05;;;;;;;;;;6336628;22;20093;-79
2023/04/14 04:02:55;;;;;;;8.13;4.22;;;;;;;;;;6334482;22;20329;-80
2023/04/14 04:05:22;;;;;;;5.80;3.92;;;;;;;;;;6335719;22;20515;-79
2023/04/14 04:07:51;;;;;;;5.13;4.03;;;;;;;;;;6335366;22;20003;-80
2023/04/14 04:10:19;;;;;;;6.93;4.32;;;;;;;;;;6336318;22;20017;-78
2023/04/14 04:12:46;;;;;;;7.38;3.67;;;;;;;;;;6337411;22;20003;-81
2023/04/14 04:15:13;;;;;;;10.55;4.50;;;;;;;;;;6306722;22;20030;-80
2023/04/14 04:17:40;;;;;;;5.93;3.42;;;;;;;;;;6337018;22;20022;-81
2023/04/14 04:20:09;;;;;;;5.68;4.10;;;;;;;;;;6311627;22;20432;-79
2023/04/14 04:22:37;;;;;;;7.13;4.40;;;;;;;;;;6350542;22;20052;-79
2023/04/14 04:25:04;;;;;;;6.18;4.82;;;;;;;;;;6337575;22;20010;-80
2023/04/14 04:27:30;;;;;;;5.25;3.95;;;;;;;;;;6309395;22;20007;-80
2023/04/14 04:29:57;;;;;;;7.03;3.78;;;;;;;;;;6336486;22;20003;-80
2023/04/14 04:32:23;;;;;;;6.90;4.07;;;;;;;;;;6336656;22;20014;-80
2023/04/14 04:34:50;;;;;;;6.97;4.35;;;;;;;;;;6337010;22;20484;-80
2023/04/14 04:37:17;;;;;;;10.15;4.63;;;;;;;;;;6344847;22;20003;-80
2023/04/14 04:39:44;;;;;;;9.93;4.80;;;;;;;;;;6348527;22;20282;-80
2023/04/14 04:42:10;;;;;;;6.95;5.10;;;;;;;;;;6344944;22;20007;-81
2023/04/14 04:44:36;;;;;;;6.15;4.43;;;;;;;;;;6336586;22;20013;-81
2023/04/14 04:47:02;;;;;;;5.50;4.20;;;;;;;;;;6344715;22;20005;-80
2023/04/14 04:49:28;;;;;;;6.43;3.97;;;;;;;;;;6351241;22;20252;-81
2023/04/14 04:51:55;;;;;;;5.55;4.20;;;;;;;;;;6320650;22;20038;-80
2023/04/14 04:54:21;;;;;;;9.68;3.97;;;;;;;;;;6346786;22;20038;-79
2023/04/14 04:56:48;;;;;;;6.85;4.03;;;;;;;;;;6338653;22;20030;-79
2023/04/14 04:59:14;;;;;;;10.00;4.35;;;;;;;;;;6336496;22;20357;-79
2023/04/14 05:01:40;;;;;;;6.82;3.92;;;;;;;;;;6331066;22;20026;-79
2023/04/14 05:04:06;;;;;;;7.40;4.40;;;;;;;;;;6335218;22;20006;-79
2023/04/14 05:06:37;;;;;;;8.65;4.53;;;;;;;;;;6350197;22;20011;-80
2023/04/14 05:09:05;;;;;;;6.63;4.20;;;;;;;;;;6360310;22;20002;-79
2023/04/14 05:11:32;;;;;;;7.35;4.75;;;;;;;;;;6353410;22;19999;-79
2023/04/14 05:13:59;;;;;;;7.72;4.45;;;;;;;;;;6333982;22;19999;-80
2023/04/14 05:16:27;;;;;;;6.50;4.50;;;;;;;;;;6324121;22;20009;-80
2023/04/14 05:18:53;;;;;;;6.47;3.80;;;;;;;;;;6318522;22;20002;-80
2023/04/14 05:21:20;;;;;;;6.65;5.13;;;;;;;;;;6336405;22;20003;-80
2023/04/14 05:23:46;;;;;;;6.63;4.85;;;;;;;;;;6336440;22;20002;-80
2023/04/14 05:26:12;;;;;;;6.82;4.68;;;;;;;;;;6335595;22;20422;-80
2023/04/14 05:28:39;;;;;;;6.15;4.10;;;;;;;;;;6332408;22;20318;-80
2023/04/14 05:31:05;;;;;;;5.88;4.03;;;;;;;;;;6337521;22;20071;-81
2023/04/14 05:33:31;;;;;;;8.73;5.05;;;;;;;;;;6341622;22;20013;-80
2023/04/14 05:35:58;;;;;;;7.25;4.32;;;;;;;;;;6341679;22;19995;-80
2023/04/14 05:38:24;;;;;;;6.13;4.50;;;;;;;;;;6343456;22;20005;-80
2023/04/14 05:40:50;;;;;;;6.20;4.68;;;;;;;;;;6339254;22;20444;-81
2023/04/14 05:43:16;;;;;;;7.13;4.53;;;;;;;;;;6338697;22;20082;-80
2023/04/14 05:45:42;;;;;;;6.80;4.45;;;;;;;;;;6338780;22;20514;-81
2023/04/14 05:48:08;;;;;;;7.65;4.38;;;;;;;;;;6346336;22;20007;-80
2023/04/14 05:50:36;;;;;;;7.47;4.97;;;;;;;;;;6336909;22;19995;-80
2023/04/14 05:53:02;;;;;;;6.60;4.50;;;;;;;;;;6334134;22;20002;-80
2023/04/14 05:55:28;;;;;;;9.10;4.82;;;;;;;;;;6332287;22;19995;-79
2023/04/14 05:57:55;;;;;;;6.95;4.68;;;;;;;;;;6335567;22;20007;-80
2023/04/14 06:00:22;;;;;;;7.65;4.47;;;;;;;;;;6336038;22;20336;-80
2023/04/14 06:02:48;;;;;;;8.60;4.45;;;;;;;;;;6336255;22;20025;-79
2023/04/14 06:05:14;;;;;;;6.25;3.90;;;;;;;;;;6306708;22;20029;-78
2023/04/14 06:07:40;;;;;;;7.03;4.25;;;;;;;;;;6335935;22;20073;-78
2023/04/14 06:10:07;;;;;;;7.47;5.38;;;;;;;;;;6309494;22;20387;-79
2023/04/14 06:12:33;;;;;;;8.43;4.07;;;;;;;;;;6336906;22;19999;-80
2023/04/14 06:14:59;;;;;;;8.10;3.95;;;;;;;;;;6337384;22;20005;-81
2023/04/14 06:17:25;;;;;;;6.82;4.50;;;;;;;;;;6336751;22;20002;-79
2023/04/14 06:19:52;;;;;;;7.03;4.47;;;;;;;;;;6308776;22;20085;-79
2023/04/14 06:22:18;;;;;;;8.63;4.75;;;;;;;;;;6337860;22;20003;-80
2023/04/14 06:24:48;;;;;;;7.03;5.10;;;;;;;;;;6336857;22;20075;-79
2023/04/14 06:27:14;;;;;;;8.00;4.70;;;;;;;;;;6313515;22;20103;-80
2023/04/14 06:29:40;;;;;;;5.47;4.28;;;;;;;;;;6339933;22;20038;-79
2023/04/14 06:32:06;;;;;;;6.80;4.68;;;;;;;;;;6340465;22;19999;-79
2023/04/14 06:34:32;;;;;;;7.10;3.97;;;;;;;;;;6341082;22;20018;-80
2023/04/14 06:37:00;;;;;;;6.90;4.40;;;;;;;;;;6315543;22;20003;-80
2023/04/14 06:39:26;;;;;;;9.40;4.78;;;;;;;;;;6348844;22;20003;-80
2023/04/14 06:41:53;;;;;;;5.78;4.35;;;;;;;;;;6318618;22;20021;-81
2023/04/14 06:44:19;;;;;;;7.63;4.90;;;;;;;;;;6319798;22;20024;-81
2023/04/14 06:46:45;;;;;;;8.32;5.25;;;;;;;;;;6319386;22;20006;-80
2023/04/14 06:49:11;;;;;;;7.10;4.88;;;;;;;;;;6318648;22;20011;-81
2023/04/14 06:51:38;;;;;;;7.35;4.63;;;;;;;;;;6343953;22;20117;-81
2023/04/14 06:54:05;;;;;;;7.38;4.80;;;;;;;;;;6339448;22;19995;-80
2023/04/14 06:56:31;;;;;;;6.43;4.90;;;;;;;;;;6344224;22;20002;-80
2023/04/14 06:58:57;;;;;;;6.32;4.90;;;;;;;;;;6340319;22;20010;-81
2023/04/14 07:01:23;;;;;;;6.30;4.18;;;;;;;;;;6338306;22;20045;-80
2023/04/14 07:03:49;;;;;;;7.32;4.28;;;;;;;;;;6340085;22;20444;-81
2023/04/14 07:06:18;;;;;;;5.50;4.18;;;;;;;;;;6338811;22;20006;-79
2023/04/14 07:08:45;;;;;;;6.90;4.13;;;;;;;;;;6340752;22;20074;-80
2023/04/14 07:11:11;;;;;;;6.38;3.63;;;;;;;;;;6357643;22;20403;-80
2023/04/14 07:13:39;;;;;;;10.40;4.43;;;;;;;;;;6357104;22;20320;-79
2023/04/14 07:16:06;;;;;;;6.38;3.85;;;;;;;;;;6339228;22;19995;-79
2023/04/14 07:18:32;;;;;;;31.58;4.80;;;;;;;;;;6338283;22;19999;-80
2023/04/14 07:20:59;;;;;;;5.57;3.78;;;;;;;;;;6338723;22;20010;-79
2023/04/14 07:23:25;;;;;;;10.73;4.05;;;;;;;;;;6334838;22;20465;-80
2023/04/14 07:25:52;;;;;;;8.23;4.10;;;;;;;;;;6341986;22;20320;-80
2023/04/14 07:28:18;;;;;;;3.95;3.10;;;;;;;;;;6350553;22;20235;-80
2023/04/14 07:30:44;;;;;;;5.70;3.55;;;;;;;;;;6350191;22;20010;-81
2023/04/14 07:33:11;;;;;;;5.40;3.83;;;;;;;;;;6315319;22;20011;-82
2023/04/14 07:35:37;;;;;;;7.85;3.88;;;;;;;;;;6343301;22;20014;-82
2023/04/14 07:38:03;;;;;;;6.30;4.05;;;;;;;;;;6354597;22;19999;-82
2023/04/14 07:40:30;;;;;;;8.00;4.13;;;;;;;;;;6321893;22;20007;-82
2023/04/14 07:42:56;;;;;;;4.30;3.17;;;;;;;;;;6341047;22;20045;-81
2023/04/14 07:45:23;;;;;;;5.68;3.10;;;;;;;;;;6314384;22;20035;-81
2023/04/14 07:47:51;;;;;;;5.18;2.83;;;;;;;;;;6348117;22;20002;-81
2023/04/14 07:50:17;;;;;;;6.03;2.88;;;;;;;;;;6347572;22;19999;-81
2023/04/14 07:52:43;;;;;;;7.10;3.17;;;;;;;;;;6344786;22;20432;-81
2023/04/14 07:55:09;;;;;;;6.22;2.80;;;;;;;;;;6320258;22;20003;-80
2023/04/14 07:57:36;;;;;;;4.90;2.90;;;;;;;;;;6319537;22;20435;-81
2023/04/14 08:00:02;;;;;;;7.55;2.92;;;;;;;;;;6319328;22;20030;-82
2023/04/14 08:02:30;;;;;;;6.65;2.95;;;;;;;;;;6343133;22;20003;-83
2023/04/14 08:04:56;;;;;;;5.13;2.80;;;;;;;;;;6317579;22;20009;-80
2023/04/14 08:07:22;;;;;;;3.47;2.85;;;;;;;;;;6316690;22;20208;-81
2023/04/14 08:09:49;;;;;;;6.25;2.72;;;;;;;;;;6343540;22;20044;-81
2023/04/14 08:12:16;;;;;;;5.53;2.70;;;;;;;;;;6348513;22;20376;-80
2023/04/14 08:14:42;;;;;;;3.47;2.60;;;;;;;;;;6348022;22;19998;-81
2023/04/14 08:17:08;;;;;;;6.72;3.05;;;;;;;;;;6347323;22;20010;-81
2023/04/14 08:19:34;;;;;;;6.55;2.90;;;;;;;;;;6320527;22;19993;-81
2023/04/14 08:22:00;;;;;;;7.00;3.10;;;;;;;;;;6316222;22;20050;-82
2023/04/14 08:24:26;;;;;;;9.55;3.00;;;;;;;;;;6340664;22;20041;-81
2023/04/14 08:26:55;;;;;;;3.45;2.40;;;;;;;;;;6342634;22;20074;-80
2023/04/14 08:29:22;;;;;;;4.22;2.72;;;;;;;;;;6343752;22;20013;-81
2023/04/14 08:31:48;;;;;;;7.45;3.08;;;;;;;;;;6349043;22;19995;-80
2023/04/14 08:34:14;;;;;;;4.15;2.60;;;;;;;;;;6345267;22;20007;-80
2023/04/14 08:36:41;;;;;;;7.80;2.58;;;;;;;;;;6346296;22;20440;-80
2023/04/14 08:39:07;;;;;;;6.18;3.10;;;;;;;;;;6349300;22;20011;-79
2023/04/14 08:41:34;;;;;;;3.53;2.58;;;;;;;;;;6324132;22;20011;-80
2023/04/14 08:44:00;;;;;;;6.25;2.85;;;;;;;;;;6343123;22;20026;-81
2023/04/14 08:46:27;;;;;;;7.03;2.47;;;;;;;;;;6344600;22;20003;-81
2023/04/14 08:48:58;;;;;;;3.92;2.38;;;;;;;;;;6320630;22;20006;-82
2023/04/14 08:51:35;;;;;;;2.78;2.10;;;;;;;;;;6357297;22;20002;-82
2023/04/14 08:54:08;;;;;;;4.03;2.40;;;;;;;;;;6315400;22;20006;-81
2023/04/14 08:56:37;;;;;;;4.80;2.67;;;;;;;;;;6313003;22;20011;-80
2023/04/14 08:59:04;;;;;;;7.82;2.30;;;;;;;;;;6310243;22;20014;-79
2023/04/14 09:01:32;;;;;;;4.55;2.05;;;;;;;;;;6347138;22;20086;-81
2023/04/14 09:03:59;;;;;;;3.65;2.50;;;;;;;;;;6316870;22;20002;-81
2023/04/14 09:06:26;;;;;;;4.25;2.10;;;;;;;;;;6352299;22;20006;-79
2023/04/14 09:08:53;;;;;;;5.63;2.30;;;;;;;;;;6343769;22;20002;-81
2023/04/14 09:11:19;;;;;;;6.68;2.17;;;;;;;;;;6343434;22;19999;-80
2023/04/14 09:13:46;;;;;;;8.38;2.28;;;;;;;;;;6321512;22;20003;-81
2023/04/14 09:16:14;;;;;;;5.00;2.00;;;;;;;;;;6326358;22;20022;-80
2023/04/14 09:18:40;;;;;;;6.63;2.53;;;;;;;;;;6322310;22;20136;-79
2023/04/14 09:21:07;;;;;;;5.53;2.63;;;;;;;;;;6351319;22;19995;-81
2023/04/14 09:23:33;;;;;;;4.93;2.80;;;;;;;;;;6346377;22;20080;-81
2023/04/14 09:26:00;;;;;;;6.10;2.70;;;;;;;;;;6317836;22;20007;-80
2023/04/14 09:28:26;;;;;;;6.82;2.20;;;;;;;;;;6350372;22;20085;-81
2023/04/14 09:30:52;;;;;;;6.28;2.80;;;;;;;;;;6322640;22;20033;-81
2023/04/14 09:33:19;;;;;;;6.47;2.60;;;;;;;;;;6319195;22;20034;-80
2023/04/14 09:35:49;;;;;;;5.40;3.00;;;;;;;;;;6349535;22;20405;-81
2023/04/14 09:38:32;;;;;;;4.60;2.10;;;;;;;;;;6346481;22;20013;-81
2023/04/14 09:40:58;;;;;;;6.88;2.15;;;;;;;;;;6350238;22;20457;-81
2023/04/14 09:43:25;;;;;;;3.00;2.08;;;;;;;;;;6363062;22;19983;-79
2023/04/14 09:45:52;;;;;;;2.60;1.75;;;;;;;;;;6353242;22;20002;-79
2023/04/14 09:48:19;;;;;;;5.93;2.28;;;;;;;;;;6347407;22;20038;-81
2023/04/14 09:51:02;;;;;;;3.78;2.20;;;;;;;;;;6343591;22;19999;-80
2023/04/14 09:53:32;;;;;;;3.28;2.20;;;;;;;;;;6315514;22;20013;-81
2023/04/14 09:56:01;;;;;;;3.38;2.20;;;;;;;;;;6316048;22;20375;-80
2023/04/14 09:58:32;;;;;;;5.18;2.10;;;;;;;;;;6343938;22;20006;-80
2023/04/14 10:00:58;;;;;;;6.65;2.42;;;;;;;;;;6340144;22;20013;-80
2023/04/14 10:03:44;;;;;;;6.13;2.30;;;;;;;;;;6343359;22;20037;-80
2023/04/14 10:06:21;;;;;;;7.35;2.03;;;;;;;;;;6340774;22;20058;-80
2023/04/14 10:08:54;;;;;;;3.83;1.95;;;;;;;;;;6342146;22;20460;-80
2023/04/14 10:11:25;;;;;;;2.42;1.90;;;;;;;;;;6342794;22;20005;-80
2023/04/14 10:13:53;;;;;;;5.38;2.28;;;;;;;;;;6342005;22;20002;-79
2023/04/14 10:16:19;;;;;;;5.10;2.83;;;;;;;;;;6345433;22;19995;-80
2023/04/14 10:18:45;;;;;;;4.68;2.20;;;;;;;;;;6344520;22;20010;-79
2023/04/14 10:21:12;;;;;;;3.60;2.33;;;;;;;;;;6342852;22;20002;-81
2023/04/14 10:23:40;;;;;;;3.58;2.30;;;;;;;;;;6344185;22;20077;-80
2023/04/14 10:26:07;;;;;;;3.47;2.33;;;;;;;;;;6339276;22;20432;-80
2023/04/14 10:28:37;;;;;;;5.28;2.13;;;;;;;;;;6338972;22;20011;-80
2023/04/14 10:31:05;;;;;;;3.17;1.98;;;;;;;;;;6342028;22;20082;-80
2023/04/14 10:33:31;;;;;;;4.43;2.03;;;;;;;;;;6343391;22;20082;-80
2023/04/14 10:36:00;;;;;;;3.38;2.00;;;;;;;;;;6343263;22;19999;-79
2023/04/14 10:38:46;;;;;;;4.85;2.63;;;;;;;;;;6345425;22;19995;-79
2023/04/14 10:41:12;;;;;;;2.97;2.22;;;;;;;;;;6343613;22;20443;-79
2023/04/14 10:43:39;;;;;;;3.63;3.05;;;;;;;;;;6346411;22;20003;-80
2023/04/14 10:46:06;;;;;;;4.30;2.22;;;;;;;;;;6352177;22;20336;-79
2023/04/14 10:48:33;;;;;;;4.57;2.35;;;;;;;;;;6349908;22;20010;-79
2023/04/14 10:51:01;;;;;;;4.28;2.20;;;;;;;;;;6322767;22;20082;-82
2023/04/14 10:56:09;;;;;;;3.17;2.00;;;;;;;;;;6347045;22;20064;-90
2023/04/14 10:58:48;;;;;;;3.25;2.10;;;;;;;;;;6319755;22;20029;-86
2023/04/14 11:01:24;;;;;;;5.60;2.80;;;;;;;;;;6339510;22;20289;-88
2023/04/14 11:03:51;;;;;;;6.10;2.40;;;;;;;;;;6313727;22;20064;-87
2023/04/14 11:06:36;;;;;;;7.72;2.60;;;;;;;;;;6335731;22;20002;-87
2023/04/14 11:09:21;;;;;;;5.68;2.28;;;;;;;;;;6309283;22;20003;-88
2023/04/14 11:11:47;;;;;;;6.72;2.10;;;;;;;;;;6311952;22;20491;-86
2023/04/14 11:14:13;;;;;;;8.40;2.42;;;;;;;;;;6338167;22;20117;-87
2023/04/14 11:16:40;;;;;;;5.53;2.20;;;;;;;;;;6312707;22;20014;-92
2023/04/14 11:19:20;;;;;;;5.53;2.83;;;;;;;;;;6314440;22;20010;-85
2023/04/14 11:21:52;;;;;;;5.13;2.00;;;;;;;;;;6342439;22;20017;-91
2023/04/14 11:24:20;;;;;;;5.88;2.95;;;;;;;;;;6313481;22;20014;-91
2023/04/14 11:26:46;;;;;;;4.40;2.40;;;;;;;;;;6315458;22;20006;-89
2023/04/14 11:29:13;;;;;;;2.80;2.03;;;;;;;;;;6341868;22;19999;-85
2023/04/14 11:31:39;;;;;;;4.20;2.30;;;;;;;;;;6310496;22;20312;-83
2023/04/14 11:34:05;;;;;;;3.92;2.33;;;;;;;;;;6336836;22;19998;-81
2023/04/14 11:36:38;;;;;;;3.90;2.20;;;;;;;;;;6306892;22;19995;-77
2023/04/14 11:39:05;;;;;;;2.97;2.10;;;;;;;;;;6309029;22;20033;-79
2023/04/14 11:41:31;;;;;;;6.25;2.42;;;;;;;;;;6282414;22;20018;-77
2023/04/14 11:43:58;;;;;;;4.68;2.08;;;;;;;;;;6306599;22;20462;-78
2023/04/14 11:46:24;;;;;;;4.68;2.20;;;;;;;;;;6335174;22;20692;-77
2023/04/14 11:48:54;;;;;;;3.28;2.28;;;;;;;;;;6306523;22;20076;-79
2023/04/14 11:51:21;;;;;;;2.88;1.95;;;;;;;;;;6334830;22;20018;-79
2023/04/14 11:53:47;;;;;;;3.17;2.35;;;;;;;;;;6308022;22;20033;-77
2023/04/14 11:56:14;;;;;;;3.45;2.03;;;;;;;;;;6303383;22;20039;-77
2023/04/14 11:58:40;;;;;;;4.05;2.38;;;;;;;;;;6303520;22;20116;-78
2023/04/14 12:01:08;;;;;;;4.35;2.20;;;;;;;;;;6300529;22;20062;-86
2023/04/14 12:03:37;;;;;;;3.30;2.10;;;;;;;;;;6301923;22;20762;-78
2023/04/14 12:06:04;;;;;;;3.40;1.70;;;;;;;;;;6301225;22;20436;-78
2023/04/14 12:08:31;;;;;;;3.85;2.20;;;;;;;;;;6301140;22;20379;-77
2023/04/14 12:10:57;;;;;;;3.47;2.10;;;;;;;;;;6302258;22;20113;-77
2023/04/14 12:13:23;;;;;;;5.20;2.40;;;;;;;;;;6302579;22;20006;-77
2023/04/14 12:15:50;;;;;;;3.08;1.77;;;;;;;;;;6301931;22;20013;-77
2023/04/14 12:18:16;;;;;;;2.47;1.83;;;;;;;;;;6301697;22;20038;-77
2023/04/14 12:20:54;;;;;;;4.28;2.00;;;;;;;;;;6303735;22;20000;-78
2023/04/14 12:23:20;;;;;;;5.15;2.10;;;;;;;;;;6303076;22;20010;-78
2023/04/14 12:25:50;;;;;;;4.07;1.80;;;;;;;;;;6301908;22;20003;-76
2023/04/14 12:28:17;;;;;;;6.03;2.08;;;;;;;;;;6301341;22;20052;-79
2023/04/14 12:30:50;;;;;;;3.10;2.15;;;;;;;;;;6302839;22;20003;-75
2023/04/14 12:33:17;;;;;;;6.13;2.40;;;;;;;;;;6301204;22;20007;-75
2023/04/14 12:35:43;;;;;;;2.58;1.90;;;;;;;;;;6301534;22;20359;-77
2023/04/14 12:38:13;;;;;;;7.20;2.10;;;;;;;;;;6299331;22;20298;-76
2023/04/14 12:40:42;;;;;;;3.95;2.20;;;;;;;;;;6302671;22;20000;-75
2023/04/14 12:43:08;;;;;;;3.05;2.10;;;;;;;;;;6301322;22;20348;-78
2023/04/14 12:45:41;;;;;;;3.80;1.95;;;;;;;;;;6299801;22;20011;-76
2023/04/14 12:48:08;;;;;;;3.38;1.90;;;;;;;;;;6298811;22;20000;-77
2023/04/14 12:50:34;;;;;;;4.07;2.20;;;;;;;;;;6298713;22;20134;-76
2023/04/14 12:53:01;;;;;;;4.65;2.15;;;;;;;;;;6299450;22;20023;-76
2023/04/14 12:55:29;;;;;;;3.35;1.80;;;;;;;;;;6301223;22;20428;-79
2023/04/14 12:57:55;;;;;;;4.85;2.08;;;;;;;;;;6301272;22;19999;-77
2023/04/14 13:00:22;;;;;;;2.50;1.70;;;;;;;;;;6299947;22;20407;-76
2023/04/14 13:02:49;;;;;;;2.60;1.75;;;;;;;;;;6302278;22;20533;-76
2023/04/14 13:05:16;;;;;;;4.28;2.10;;;;;;;;;;6300620;22;20003;-77
2023/04/14 13:07:42;;;;;;;3.25;2.17;;;;;;;;;;6301747;22;20090;-76
2023/04/14 13:10:09;;;;;;;3.10;1.75;;;;;;;;;;6302666;22;20034;-75
2023/04/14 13:12:36;;;;;;;2.70;1.90;;;;;;;;;;6299353;22;20011;-75
2023/04/14 13:15:02;;;;;;;4.43;1.92;;;;;;;;;;6298997;22;20014;-76
2023/04/14 13:17:28;;;;;;;2.33;1.77;;;;;;;;;;6301343;22;20049;-76
2023/04/14 13:19:55;;;;;;;4.13;2.20;;;;;;;;;;6300953;22;20007;-77
2023/04/14 13:22:21;;;;;;;3.75;1.92;;;;;;;;;;6298853;22;20007;-77
2023/04/14 13:24:48;;;;;;;4.22;2.70;;;;;;;;;;6300650;22;20004;-76
2023/04/14 13:27:15;;;;;;;3.17;1.98;;;;;;;;;;6298255;22;20016;-77
2023/04/14 13:29:41;;;;;;;2.72;1.80;;;;;;;;;;6298621;22;20007;-80
2023/04/14 13:32:11;;;;;;;3.40;2.00;;;;;;;;;;6301266;22;20003;-78
2023/04/14 13:34:38;;;;;;;2.22;1.90;;;;;;;;;;6299543;22;20007;-76
2023/04/14 13:37:05;;;;;;;1.92;1.70;;;;;;;;;;6273568;22;20555;-78
2023/04/14 13:39:31;;;;;;;2.53;1.98;;;;;;;;;;6301757;22;20003;-77
2023/04/14 13:41:58;;;;;;;3.53;1.90;;;;;;;;;;6302334;22;20011;-76
2023/04/14 13:44:24;;;;;;;4.63;2.10;;;;;;;;;;6302611;22;20396;-77
2023/04/14 13:46:51;;;;;;;5.00;2.42;;;;;;;;;;6298819;22;20417;-78
2023/04/14 13:49:17;;;;;;;5.00;2.55;;;;;;;;;;6301670;22;20007;-78
2023/04/14 13:51:43;;;;;;;3.85;2.20;;;;;;;;;;6302438;22;20448;-75
2023/04/14 13:54:09;;;;;;;2.75;2.17;;;;;;;;;;6301740;22;20680;-79
2023/04/14 13:56:35;;;;;;;5.20;2.58;;;;;;;;;;6333434;22;20014;-76
2023/04/14 13:59:01;;;;;;;3.78;2.42;;;;;;;;;;6333205;22;20014;-77
2023/04/14 14:01:28;;;;;;;4.20;1.90;;;;;;;;;;6306103;22;20647;-76
2023/04/14 14:03:54;;;;;;;2.65;2.45;;;;;;;;;;6328636;22;20003;-78
2023/04/14 14:06:20;;;;;;;4.80;1.98;;;;;;;;;;6330464;22;20124;-78
2023/04/14 14:08:46;;;;;;;4.78;2.20;;;;;;;;;;6305489;22;20659;-77
2023/04/14 14:11:12;;;;;;;2.10;1.60;;;;;;;;;;6303579;22;20077;-78
2023/04/14 14:13:39;;;;;;;3.00;2.10;;;;;;;;;;6305114;22;20125;-79
2023/04/14 14:16:06;;;;;;;2.10;1.77;;;;;;;;;;6305395;22;20021;-79
2023/04/14 14:18:33;;;;;;;2.45;2.25;;;;;;;;;;6332672;22;20015;-77
2023/04/14 14:20:59;;;;;;;1.73;1.60;;;;;;;;;;6332466;22;20009;-76
2023/04/14 14:23:25;;;;;;;1.60;1.50;;;;;;;;;;6303208;22;20063;-77
2023/04/14 14:25:52;;;;;;;2.33;1.48;;;;;;;;;;6333519;22;20048;-75
2023/04/14 14:28:20;;;;;;;1.58;1.42;;;;;;;;;;6331165;22;20335;-79
2023/04/14 14:30:47;;;;;;;2.33;1.63;;;;;;;;;;6304284;22;20062;-76
2023/04/14 14:33:13;;;;;;;2.20;1.50;;;;;;;;;;6330923;22;20427;-76
2023/04/14 14:35:39;;;;;;;1.70;1.60;;;;;;;;;;6304180;22;20010;-75
2023/04/14 14:38:06;;;;;;;1.90;1.48;;;;;;;;;;6303921;22;20009;-77
2023/04/14 14:40:32;;;;;;;3.45;1.80;;;;;;;;;;6333723;22;20424;-75
2023/04/14 14:42:58;;;;;;;1.60;1.50;;;;;;;;;;6304761;22;20060;-78
2023/04/14 14:45:25;;;;;;;1.60;1.50;;;;;;;;;;6305571;22;20031;-76
2023/04/14 14:47:51;;;;;;;1.42;1.40;;;;;;;;;;6304902;22;20003;-76